Weather at Tarfaya Airport

Public forecast

Using degrees Celsius for public forecast. Weather courtesy of forecast.io.

Closest aviation weather report (METAR) to Tarfaya Airport

Closest report is Hassan I Airport, 50.5 nm (93.5 km) SSW. Retrieved 2021/04/17 20:00 UTC (42 minutes ago):

GMML 172000Z 02020KT 9999 BKN026 19/15 Q1017 NOSIG

Closest aviation forecast (TAF) to Tarfaya Airport

Closest forecast is Hassan I Airport, 50.5 nm (93.5 km) SSW. Retrieved 2021/04/17 18:24 UTC (2 hours ago):

TAF TAF GMML 171700Z 1718/1824 02020KT 8000 BKN030 BECMG 1720/1722 BKN010 BECMG 1808/1810 SCT030